Latest Coastal Weather Observations for Port Macquarie Airport

IDN60701

Issued at 6:01 pm EDT Thursday 23 February 2017 (issued every 10 minutes, with the page automatically refreshed every 10 minutes)

About coastal observations | Map of coastal stations | Coastal observations for NSW | Marine services | Other Formats
Station Details ID: 060139 Name: PORT MACQUARIE AIRPORT AWS Lat: -31.43 Lon: 152.87 Height: 4.2 m
Data from the previous 72 hours. | See also: Recent months at Port Macquarie Airport
Date/Time
EDT
Temp
°C
Wind Pressure Rain since
9am
mm
Weather Cloud Vis
km
Sea
Height
m
Swell
Dir  Spd
kts
Gust
kts
hPa Trend Height
m
Period
s
Dir
23/06:00pm 25.9 ENE 10 14 1018.5 - 0.0 - - 10 - - - -
23/05:30pm 26.5 NE 11 14 1018.4 - 0.0 - - 10 - - - -
23/05:00pm 26.7 ENE 11 17 1018.3 - 0.0 - - 10 - - - -
23/04:30pm 27.0 ENE 12 16 1018.2 - 0.0 - - 10 - - - -
23/04:00pm 27.5 NE 11 15 1018.1 - 0.0 - - 10 - - - -
23/03:30pm 27.4 ENE 12 18 1018.3 - 0.0 - - 10 - - - -
23/03:00pm 27.6 ENE 12 16 1018.7 - 0.0 - - 10 - - - -
23/02:30pm 27.5 ENE 15 19 1018.9 - 0.0 - - 10 - - - -
23/02:00pm 27.5 ENE 14 18 1019.1 - 0.0 - - 10 - - - -
23/01:30pm 27.0 ENE 13 17 1019.2 - 0.0 - - 10 - - - -
23/01:00pm 26.9 ENE 12 17 1019.4 - 0.0 - - 10 - - - -
23/12:30pm 26.6 ENE 14 19 1019.6 - 0.0 - - 10 - - - -
23/12:00pm 26.9 ENE 13 16 1019.9 - 0.0 - - 10 - - - -
23/11:30am 26.7 ENE 12 14 1020.2 - 0.0 - - 10 - - - -
23/11:00am 26.6 ENE 10 14 1020.4 - 0.0 - - 10 - - - -
23/10:30am 26.5 NE 9 12 1020.3 - 0.0 - Partly cloudy 10 - - - -
23/10:00am 25.9 NNE 7 11 1020.4 - 0.0 - Partly cloudy 10 - - - -
23/09:30am 25.3 NNE 5 7 1020.6 - 0.0 - - 10 - - - -
23/09:00am 23.7 NNE 5 7 1020.5 - 0.0 - - 10 - - - -
23/08:30am 20.6 NW 3 4 1020.4 - 0.0 - - 10 - - - -
23/08:00am 18.7 CALM 0 0 1020.3 - 0.0 - - 10 - - - -
23/07:30am 17.5 CALM 0 0 1020.2 - 0.0 - Partly cloudy 10 - - - -
23/07:00am 15.4 CALM 0 0 1019.9 - 0.0 - Partly cloudy 10 - - - -
23/06:30am 14.8 CALM 0 0 1019.6 - 0.0 - - 10 - - - -
23/06:00am 15.2 CALM 0 0 1019.2 - 0.0 - - 10 - - - -
23/05:38am 15.1 CALM 0 0 1019.1 - 0.0 - - 10 - - - -
23/05:30am 15.2 CALM 0 0 1019.2 - 0.0 - - 10 - - - -
23/05:18am 15.6 CALM 0 0 1019.1 - 0.0 - - 4 - - - -
23/05:00am 15.6 CALM 0 0 1019.1 - 0.0 - - 10 - - - -
23/04:30am 16.4 CALM 0 0 1019.1 - 0.0 - - 10 - - - -
23/04:00am 16.9 CALM 0 0 1019.0 - 0.0 - Partly cloudy 10 - - - -
23/03:30am 17.2 CALM 0 0 1019.2 - 0.0 - Partly cloudy 10 - - - -
23/03:00am 17.5 CALM 0 0 1019.2 - 0.0 - Partly cloudy 10 - - - -
23/02:30am 18.0 CALM 0 0 1019.4 - 0.0 - Partly cloudy 10 - - - -
23/02:00am 18.1 CALM 0 0 1019.6 - 0.0 - Partly cloudy 10 - - - -
23/01:30am 19.2 N 1 3 1019.8 - 0.0 - Partly cloudy 10 - - - -
23/01:00am 20.0 N 3 4 1020.1 - 0.0 - Partly cloudy 10 - - - -
23/12:30am 20.6 CALM 0 0 1020.4 - 0.0 - Partly cloudy 10 - - - -
23/12:00am 20.1 CALM 0 0 1020.6 - 0.0 - Cloudy 10 - - - -
 
Date/Time
EDT
Temp
°C
Wind Pressure Rain since
9am
mm
Weather Cloud Vis
km
Sea
Height
m
Swell
Dir  Spd
kts
Gust
kts
hPa Trend Height
m
Period
s
Dir
22/11:30pm 20.0 NNE 3 4 1020.8 - 0.0 - Partly cloudy 10 - - - -
22/11:00pm 21.1 NNE 4 6 1020.8 - 0.0 - - 10 - - - -
22/10:30pm 22.6 NNE 4 6 1021.0 - 0.0 - Partly cloudy 10 - - - -
22/10:00pm 23.4 NNE 5 7 1021.0 - 0.0 - Partly cloudy 10 - - - -
22/09:30pm 23.7 NNE 7 9 1020.8 - 0.0 - Cloudy 10 - - - -
22/09:00pm 23.7 NE 6 8 1020.5 - 0.0 - Cloudy 10 - - - -
22/08:30pm 23.9 NE 7 9 1020.0 - 0.0 - Cloudy 10 - - - -
22/08:00pm 23.9 NE 7 9 1019.8 - 0.0 - - 10 - - - -
22/07:30pm 24.1 NE 6 8 1019.6 - 0.0 - Cloudy 10 - - - -
22/07:00pm 24.6 NE 7 10 1019.3 - 0.0 - Partly cloudy 10 - - - -
22/06:30pm 25.1 NE 8 11 1019.1 - 0.0 - - 10 - - - -
22/06:00pm 25.6 NE 9 13 1019.1 - 0.0 - - 10 - - - -
22/05:30pm 26.4 NE 11 15 1019.1 - 0.0 - - 10 - - - -
22/05:00pm 26.4 ENE 11 14 1019.1 - 0.0 - - 10 - - - -
22/04:30pm 26.5 ENE 13 17 1019.2 - 0.0 - - 10 - - - -
22/04:00pm 26.9 ENE 13 16 1019.3 - 0.0 - - 10 - - - -
22/03:30pm 26.7 ENE 12 17 1019.5 - 0.0 - - 10 - - - -
22/03:00pm 27.2 ENE 12 18 1019.7 - 0.0 - - 10 - - - -
22/02:30pm 27.3 ENE 13 18 1020.0 - 0.0 - - 10 - - - -
22/02:00pm 27.5 ENE 12 16 1020.2 - 0.0 - - 10 - - - -
22/01:30pm 27.1 E 12 16 1020.6 - 0.0 - - 10 - - - -
22/01:00pm 27.6 ENE 11 15 1020.7 - 0.0 - - 10 - - - -
22/12:30pm 26.7 ENE 10 15 1021.0 - 0.0 - - 10 - - - -
22/12:00pm 27.2 ENE 11 15 1021.3 - 0.0 - Mostly clear 10 - - - -
22/11:30am 27.4 ENE 10 14 1021.5 - 0.0 - Partly cloudy 10 - - - -
22/11:00am 26.9 ENE 10 13 1021.7 - 0.0 - - 10 - - - -
22/10:30am 26.4 ENE 10 14 1021.7 - 0.0 - - 10 - - - -
22/10:00am 26.6 ENE 9 12 1021.8 - 0.0 - Partly cloudy 10 - - - -
22/09:30am 25.6 NE 5 7 1021.6 - 0.0 - Partly cloudy 10 - - - -
22/09:00am 24.1 NNE 3 5 1021.6 - 0.0 - Mostly clear 10 - - - -
22/08:30am 21.3 CALM 0 0 1021.4 - 0.0 - Partly cloudy 10 - - - -
22/08:00am 20.2 CALM 0 0 1021.3 - 0.0 - Partly cloudy 10 - - - -
22/07:30am 20.2 CALM 0 0 1021.0 - 0.0 - Partly cloudy 10 - - - -
22/07:00am 19.7 CALM 0 0 1020.7 - 0.0 - Partly cloudy 10 - - - -
22/06:30am 19.9 CALM 0 0 1020.4 - 0.0 - Partly cloudy 10 - - - -
22/06:00am 20.1 CALM 0 0 1020.3 - 0.0 - Cloudy 10 - - - -
22/05:30am 20.4 CALM 0 0 1019.9 - 0.0 - Partly cloudy 10 - - - -
22/05:00am 20.5 CALM 0 0 1019.6 - 0.0 - Partly cloudy 10 - - - -
22/04:30am 21.0 WNW 3 4 1019.4 - 0.0 - Partly cloudy 10 - - - -
22/04:00am 21.0 WNW 1 5 1019.3 - 0.0 - Partly cloudy 10 - - - -
22/03:30am 21.2 NW 2 3 1019.3 - 0.0 - Cloudy 10 - - - -
22/03:00am 21.3 W 2 4 1019.5 - 0.0 - Cloudy 10 - - - -
22/02:30am 21.5 CALM 0 0 1019.6 - 0.0 - Cloudy 10 - - - -
22/02:00am 21.9 CALM 0 0 1019.8 - 0.0 - Cloudy 10 - - - -
22/01:30am 22.4 W 2 4 1020.0 - 0.0 - Partly cloudy 10 - - - -
22/01:00am 23.5 NE 5 6 1020.3 - 0.0 - Partly cloudy 10 - - - -
22/12:30am 23.6 NE 5 7 1020.6 - 0.0 - Cloudy 10 - - - -
22/12:00am 23.8 ENE 5 7 1020.8 - 0.0 - Cloudy 10 - - - -
 
Date/Time
EDT
Temp
°C
Wind Pressure Rain since
9am
mm
Weather Cloud Vis
km
Sea
Height
m
Swell
Dir  Spd
kts
Gust
kts
hPa Trend Height
m
Period
s
Dir
21/11:30pm 23.8 ENE 6 9 1020.8 - 0.0 - Cloudy 10 - - - -
21/11:00pm 23.8 ENE 6 8 1021.0 - 0.0 - Partly cloudy 10 - - - -
21/10:30pm 23.8 ENE 7 9 1021.0 - 0.0 - Partly cloudy 10 - - - -
21/10:00pm 23.8 ENE 7 10 1021.0 - 0.0 - Partly cloudy 10 - - - -
21/09:30pm 23.9 ENE 7 10 1020.8 - 0.0 - Cloudy 10 - - - -
21/09:00pm 24.0 ENE 7 10 1020.6 - 0.0 - Cloudy 10 - - - -
21/08:30pm 24.0 ENE 7 11 1020.3 - 0.0 - Cloudy 10 - - - -
21/08:00pm 24.0 NE 7 11 1020.0 - 0.0 - Partly cloudy 10 - - - -
21/07:30pm 24.1 ENE 8 11 1019.5 - 0.0 - Partly cloudy 10 - - - -
21/07:00pm 24.3 ENE 9 12 1019.3 - 0.0 - Partly cloudy 10 - - - -
21/06:30pm 24.7 ENE 9 11 1018.9 - 0.0 - - 10 - - - -
21/06:00pm 24.9 ENE 8 12 1018.7 - 0.0 - Cloudy 10 - - - -
21/05:30pm 25.1 ENE 10 13 1018.7 - 0.0 - Partly cloudy 10 - - - -
21/05:00pm 25.7 ENE 10 14 1018.1 - 0.0 - Cloudy 10 - - - -
21/04:30pm 25.6 E 13 17 1017.9 - 0.0 - Partly cloudy 10 - - - -
21/04:00pm 25.7 ENE 13 17 1018.0 - 0.0 - Partly cloudy 10 - - - -
21/03:30pm 27.3 ENE 12 17 1017.8 - 0.0 - - 10 - - - -
21/03:00pm 26.4 ENE 14 19 1017.9 - 0.0 - Mostly clear 10 - - - -
21/02:30pm 27.2 E 12 16 1018.2 - 0.0 - Partly cloudy 10 - - - -
21/02:00pm 27.0 E 14 19 1018.4 - 0.0 - - 10 - - - -
21/01:30pm 27.5 E 13 18 1018.7 - 0.0 - - 10 - - - -
21/01:00pm 26.9 E 12 17 1018.7 - 0.0 - - 10 - - - -
21/12:30pm 27.1 NE 12 17 1019.0 - 0.0 - - 10 - - - -
21/12:00pm 27.3 ENE 9 11 1019.3 - 0.0 - Mostly clear 10 - - - -
21/11:30am 26.5 ENE 8 12 1019.2 - 0.0 - Partly cloudy 10 - - - -
21/11:00am 26.5 ENE 7 9 1019.4 - 0.0 - Partly cloudy 10 - - - -
21/10:30am 26.2 ESE 3 6 1019.2 - 0.0 - - 10 - - - -
21/10:00am 24.8 W 2 5 1019.0 - 0.0 - - 10 - - - -
21/09:30am 23.1 W 4 5 1019.1 - 0.0 - Partly cloudy 10 - - - -
21/09:00am 21.2 W 5 7 1018.8 - 0.0 - - 10 - - - -
21/08:30am 19.8 W 5 6 1018.4 - 0.0 - - 10 - - - -
21/08:00am 18.1 W 4 5 1017.9 - 0.0 - - 10 - - - -
21/07:30am 15.5 W 2 4 1017.7 - 0.0 - - 10 - - - -
21/07:00am 13.5 WSW 3 4 1017.1 - 0.0 - - 10 - - - -
21/06:30am 13.1 WSW 2 3 1016.8 - 0.0 - - 10 - - - -
21/06:00am 13.3 WSW 1 4 1016.6 - 0.0 - Mostly clear 10 - - - -
21/05:30am 13.4 CALM 0 3 1016.4 - 0.0 - Partly cloudy 10 - - - -
21/05:00am 13.1 W 2 3 1016.2 - 0.0 - - 10 - - - -
21/04:30am 12.8 CALM 0 0 1015.9 - 0.0 - - 10 - - - -
21/04:00am 13.3 CALM 0 0 1015.6 - 0.0 - - 10 - - - -
21/03:30am 13.4 CALM 0 0 1015.7 - 0.0 - - 10 - - - -
21/03:00am 13.7 CALM 0 0 1015.9 - 0.0 - - 10 - - - -
21/02:30am 13.8 CALM 0 0 1015.9 - 0.0 - - 10 - - - -
21/02:00am 13.8 CALM 0 0 1016.1 - 0.0 - - 10 - - - -
21/01:30am 14.2 CALM 0 0 1016.3 - 0.0 - - 10 - - - -
21/01:00am 14.3 CALM 0 0 1016.3 - 0.0 - - 10 - - - -
21/12:30am 14.5 CALM 0 0 1016.4 - 0.0 - - 10 - - - -
21/12:00am 14.7 CALM 0 0 1016.5 - 0.0 - - 10 - - - -
 
Date/Time
EDT
Temp
°C
Wind Pressure Rain since
9am
mm
Weather Cloud Vis
km
Sea
Height
m
Swell
Dir  Spd
kts
Gust
kts
hPa Trend Height
m
Period
s
Dir
20/11:30pm 14.9 CALM 0 0 1016.4 - 0.0 - - 10 - - - -
20/11:00pm 15.0 CALM 0 0 1016.3 - 0.0 - - 10 - - - -
20/10:30pm 15.7 CALM 0 0 1016.2 - 0.0 - - 10 - - - -
20/10:00pm 16.3 CALM 0 0 1015.9 - 0.0 - - 10 - - - -
20/09:30pm 16.9 CALM 0 0 1015.6 - 0.0 - - 10 - - - -
20/09:00pm 17.8 CALM 0 0 1015.2 - 0.0 - - 10 - - - -
20/08:30pm 19.0 CALM 0 0 1014.6 - 0.0 - - 10 - - - -
20/08:00pm 20.4 E 1 3 1014.0 - 0.0 - - 10 - - - -
20/07:30pm 22.5 E 4 6 1013.4 - 0.0 - - 10 - - - -
20/07:00pm 23.8 ESE 7 9 1012.8 - 0.0 - - 10 - - - -
20/06:30pm 24.5 E 7 11 1012.1 - 0.0 - - 10 - - - -

Other Formats:

Comma delimited format used in spreadsheet applications
http://www.bom.gov.au/fwo/IDN60701/IDN60701.94786.axf

JavaScript Object Notation format (JSON) in row-major order
http://www.bom.gov.au/fwo/IDN60701/IDN60701.94786.json